Ipplepen, United Kingdom
Current Conditions -  °F | °C
As of 5:20 AM on Wednesday 22 Oct 2014 (Local Time) from EGTE Reporting Station
Few Clouds Few Clouds  
Wind Chill: 39°   Ceiling: Unl
Heat Index: 43°   Visibility: 6mi
Dew Point: 39°   Wind: 6mph
Humidity: 87%   Direction: 220°SW
Pressure: 30.33"   Gusts: NA
Location:  50.49°N, 3.64°W
Report Text: EGTE 220420Z 22005KT 9999 FEW040 06/04 Q1027
Loading
Personal Weather Stations






























Interactive Weather Map
Tropical Storm Tracking
New forecast layout! Learn more

10-Day Weather Forecast

Advertisements
Track Severe Weather on mobile